Time;durP1;ratioP1;P1;durP2;ratioP2;P2;SDS_P1;SDS_P2;PMS_P1;PMS_P2;Temp;Humidity;BMP_temperature;BMP_pressure;BME280_temperature;BME280_humidity;BME280_pressure;Samples;Min_cycle;Max_cycle;Signal;HPM_P1;HPM_P2
2023/07/25 00:02:24;;;;;;;10.65;6.22;;;;;;;;;;8234394;28;20479;-88
2023/07/25 00:06:27;;;;;;;12.13;6.57;;;;;;;;;;8233821;28;20047;-90
2023/07/25 00:10:30;;;;;;;11.75;6.60;;;;;;;;;;8233701;28;20043;-89
2023/07/25 00:14:34;;;;;;;13.73;7.30;;;;;;;;;;8233376;28;20055;-88
2023/07/25 00:18:38;;;;;;;12.05;7.00;;;;;;;;;;8233521;28;20069;-90
2023/07/25 00:22:41;;;;;;;12.80;7.00;;;;;;;;;;8246286;28;20459;-83
2023/07/25 00:26:44;;;;;;;13.65;7.50;;;;;;;;;;8233237;28;20472;-89
2023/07/25 00:30:47;;;;;;;11.88;7.15;;;;;;;;;;8233097;28;20476;-89
2023/07/25 00:34:52;;;;;;;14.48;7.70;;;;;;;;;;8233652;28;20121;-84
2023/07/25 00:38:55;;;;;;;13.32;7.18;;;;;;;;;;8233547;28;20517;-85
2023/07/25 00:42:59;;;;;;;11.77;7.30;;;;;;;;;;8233485;28;20495;-90
2023/07/25 00:47:04;;;;;;;14.95;7.97;;;;;;;;;;8233046;28;20472;-89
2023/07/25 00:51:08;;;;;;;12.55;7.40;;;;;;;;;;8232694;28;20065;-91
2023/07/25 00:55:12;;;;;;;13.38;7.68;;;;;;;;;;8232283;28;20051;-89
2023/07/25 00:59:15;;;;;;;18.13;8.07;;;;;;;;;;8232382;28;20054;-90
2023/07/25 01:03:18;;;;;;;15.55;7.80;;;;;;;;;;8232265;28;20407;-89
2023/07/25 01:07:23;;;;;;;16.38;8.63;;;;;;;;;;8232420;28;20046;-87
2023/07/25 01:11:27;;;;;;;15.10;7.90;;;;;;;;;;8231838;28;20053;-89
2023/07/25 01:15:31;;;;;;;14.20;7.90;;;;;;;;;;8232055;28;20142;-89
2023/07/25 01:19:35;;;;;;;13.68;7.25;;;;;;;;;;8232178;28;20051;-89
2023/07/25 01:23:39;;;;;;;13.38;8.05;;;;;;;;;;8232138;28;20065;-89
2023/07/25 01:27:44;;;;;;;16.40;8.45;;;;;;;;;;8231645;28;20550;-89
2023/07/25 01:31:47;;;;;;;14.93;7.90;;;;;;;;;;8223629;28;20356;-89
2023/07/25 01:35:50;;;;;;;13.40;7.97;;;;;;;;;;8231874;28;20039;-89
2023/07/25 01:39:53;;;;;;;14.55;9.25;;;;;;;;;;8232002;28;20057;-89
2023/07/25 01:43:57;;;;;;;18.15;8.45;;;;;;;;;;8231696;28;20047;-89
2023/07/25 01:48:00;;;;;;;16.48;9.40;;;;;;;;;;8231735;28;20047;-84
2023/07/25 01:52:03;;;;;;;16.45;8.48;;;;;;;;;;8231507;28;20430;-88
2023/07/25 01:56:06;;;;;;;14.98;8.07;;;;;;;;;;8232081;28;20089;-84
2023/07/25 02:00:11;;;;;;;15.52;8.63;;;;;;;;;;8230818;28;20073;-88
2023/07/25 02:04:14;;;;;;;14.07;8.27;;;;;;;;;;8233939;28;20050;-85
2023/07/25 02:08:16;;;;;;;14.25;8.00;;;;;;;;;;8237255;28;20039;-89
2023/07/25 02:12:19;;;;;;;17.23;8.98;;;;;;;;;;8237318;28;20050;-85
2023/07/25 02:16:24;;;;;;;15.65;8.75;;;;;;;;;;8236979;28;20059;-87
2023/07/25 02:20:27;;;;;;;16.55;8.70;;;;;;;;;;8237321;28;20051;-89
2023/07/25 02:24:29;;;;;;;17.27;9.65;;;;;;;;;;8237543;28;20454;-89
2023/07/25 02:28:32;;;;;;;13.85;8.13;;;;;;;;;;8237055;28;20141;-88
2023/07/25 02:32:36;;;;;;;18.95;9.45;;;;;;;;;;8236535;28;20043;-88
2023/07/25 02:36:39;;;;;;;17.75;9.57;;;;;;;;;;8236611;28;20399;-90
2023/07/25 02:40:43;;;;;;;11.88;8.48;;;;;;;;;;8236231;28;20055;-84
2023/07/25 02:44:46;;;;;;;21.40;9.52;;;;;;;;;;8236306;28;20054;-88
2023/07/25 02:48:50;;;;;;;20.70;10.30;;;;;;;;;;8236166;28;20043;-89
2023/07/25 02:52:53;;;;;;;22.20;11.07;;;;;;;;;;8235891;28;20446;-86
2023/07/25 02:56:56;;;;;;;22.90;11.48;;;;;;;;;;8235832;28;20629;-88
2023/07/25 03:00:59;;;;;;;19.10;8.90;;;;;;;;;;8236096;28;20050;-87
2023/07/25 03:05:04;;;;;;;15.52;8.77;;;;;;;;;;8235673;28;20049;-89
2023/07/25 03:09:07;;;;;;;18.35;9.40;;;;;;;;;;8235790;28;20047;-89
2023/07/25 03:13:09;;;;;;;16.85;9.25;;;;;;;;;;8233666;28;20038;-88
2023/07/25 03:17:12;;;;;;;14.85;8.88;;;;;;;;;;8233894;28;20415;-90
2023/07/25 03:21:16;;;;;;;13.63;8.40;;;;;;;;;;8235088;28;20049;-88
2023/07/25 03:25:19;;;;;;;13.13;8.25;;;;;;;;;;8235131;28;20487;-86
2023/07/25 03:29:22;;;;;;;14.77;7.30;;;;;;;;;;8235131;28;20495;-89
2023/07/25 03:33:27;;;;;;;16.88;8.52;;;;;;;;;;8234858;28;20138;-89
2023/07/25 03:37:31;;;;;;;16.60;9.07;;;;;;;;;;8234760;28;20045;-90
2023/07/25 03:41:34;;;;;;;13.50;8.48;;;;;;;;;;8234506;28;20133;-86
2023/07/25 03:45:37;;;;;;;14.05;8.15;;;;;;;;;;8234249;28;20049;-89
2023/07/25 03:49:40;;;;;;;16.58;9.02;;;;;;;;;;8234341;28;20126;-89
2023/07/25 03:53:44;;;;;;;14.10;7.95;;;;;;;;;;8234116;28;20061;-90
2023/07/25 03:57:47;;;;;;;14.88;8.27;;;;;;;;;;8234223;28;20042;-88
2023/07/25 04:01:50;;;;;;;16.80;7.95;;;;;;;;;;8234096;28;20127;-89
2023/07/25 04:05:53;;;;;;;10.82;6.97;;;;;;;;;;8234574;28;20038;-90
2023/07/25 04:09:57;;;;;;;13.63;7.20;;;;;;;;;;8233595;28;20078;-88
2023/07/25 04:14:00;;;;;;;14.60;7.22;;;;;;;;;;8233946;28;20141;-90
2023/07/25 04:18:02;;;;;;;13.43;7.63;;;;;;;;;;8232853;28;20061;-88
2023/07/25 04:22:06;;;;;;;11.88;7.57;;;;;;;;;;8233915;28;20054;-90
2023/07/25 04:26:10;;;;;;;13.25;7.25;;;;;;;;;;8224829;28;20134;-87
2023/07/25 04:30:12;;;;;;;14.48;7.85;;;;;;;;;;8224112;28;20085;-89
2023/07/25 04:34:15;;;;;;;14.00;7.88;;;;;;;;;;8210759;28;20061;-86
2023/07/25 04:38:18;;;;;;;12.50;7.45;;;;;;;;;;8232072;28;20061;-87
2023/07/25 04:42:23;;;;;;;12.50;7.10;;;;;;;;;;8231920;28;20483;-91
2023/07/25 04:46:25;;;;;;;13.98;6.57;;;;;;;;;;8232123;28;20479;-85
2023/07/25 04:50:28;;;;;;;12.18;6.40;;;;;;;;;;8231544;28;20414;-89
2023/07/25 04:54:31;;;;;;;10.35;6.07;;;;;;;;;;8229070;28;20118;-91
2023/07/25 04:58:38;;;;;;;10.30;6.57;;;;;;;;;;8218821;28;20562;-86
2023/07/25 05:02:41;;;;;;;12.05;6.35;;;;;;;;;;8214282;28;20117;-88
2023/07/25 05:06:44;;;;;;;9.07;5.68;;;;;;;;;;8212389;28;20042;-90
2023/07/25 05:10:47;;;;;;;9.48;5.55;;;;;;;;;;8219744;28;20122;-85
2023/07/25 05:14:52;;;;;;;9.57;5.38;;;;;;;;;;8226824;28;20054;-87
2023/07/25 05:18:55;;;;;;;12.38;5.15;;;;;;;;;;8225130;28;20051;-93
2023/07/25 05:22:57;;;;;;;10.00;4.63;;;;;;;;;;8225631;28;20105;-92
2023/07/25 05:27:00;;;;;;;9.18;5.30;;;;;;;;;;8229215;28;20085;-87
2023/07/25 05:31:05;;;;;;;7.63;4.93;;;;;;;;;;8230034;28;20059;-91
2023/07/25 05:35:08;;;;;;;8.85;4.97;;;;;;;;;;8230872;28;20058;-91
2023/07/25 05:39:11;;;;;;;7.65;4.35;;;;;;;;;;8234690;28;20121;-87
2023/07/25 05:43:16;;;;;;;9.00;4.82;;;;;;;;;;8238838;28;20055;-88
2023/07/25 05:47:20;;;;;;;8.43;4.20;;;;;;;;;;8229286;28;20103;-85
2023/07/25 05:51:24;;;;;;;9.07;4.55;;;;;;;;;;8209198;28;20103;-85
2023/07/25 05:55:27;;;;;;;8.40;4.70;;;;;;;;;;8217927;28;20043;-91
2023/07/25 05:59:29;;;;;;;8.23;4.43;;;;;;;;;;8237984;28;20053;-92
2023/07/25 06:03:34;;;;;;;7.38;4.32;;;;;;;;;;8237079;28;20047;-85
2023/07/25 06:07:37;;;;;;;6.90;3.65;;;;;;;;;;8227426;28;20047;-88
2023/07/25 06:11:40;;;;;;;6.60;4.05;;;;;;;;;;8225456;28;20043;-85
2023/07/25 06:15:43;;;;;;;6.90;3.83;;;;;;;;;;8223760;28;20055;-93
2023/07/25 06:19:47;;;;;;;7.35;3.70;;;;;;;;;;8234414;28;20046;-90
2023/07/25 06:23:51;;;;;;;6.60;3.70;;;;;;;;;;8232834;28;20552;-89
2023/07/25 06:27:54;;;;;;;6.03;3.70;;;;;;;;;;8232873;28;20388;-85
2023/07/25 06:31:57;;;;;;;5.82;3.60;;;;;;;;;;8236007;28;20105;-85
2023/07/25 06:36:01;;;;;;;6.50;3.88;;;;;;;;;;8231234;28;20503;-86
2023/07/25 06:40:05;;;;;;;6.32;3.53;;;;;;;;;;8236441;28;20074;-85
2023/07/25 06:44:08;;;;;;;7.20;3.50;;;;;;;;;;8234395;28;20043;-93
2023/07/25 06:48:10;;;;;;;5.45;3.22;;;;;;;;;;8233413;28;20043;-85
2023/07/25 06:52:15;;;;;;;5.15;2.92;;;;;;;;;;8231777;28;20047;-87
2023/07/25 06:56:18;;;;;;;6.05;3.00;;;;;;;;;;8233685;28;20043;-85
2023/07/25 07:00:21;;;;;;;6.10;3.60;;;;;;;;;;8235588;28;20047;-94
2023/07/25 07:04:25;;;;;;;4.90;2.72;;;;;;;;;;8235758;28;20129;-94
2023/07/25 07:08:29;;;;;;;5.43;3.42;;;;;;;;;;8235755;28;20057;-88
2023/07/25 07:12:32;;;;;;;5.88;3.17;;;;;;;;;;8229350;28;20122;-86
2023/07/25 07:16:35;;;;;;;8.05;3.03;;;;;;;;;;8229757;28;20514;-91
2023/07/25 07:20:38;;;;;;;7.80;3.20;;;;;;;;;;8235679;28;20113;-94
2023/07/25 07:24:43;;;;;;;9.70;3.03;;;;;;;;;;8235045;28;20035;-85
2023/07/25 07:28:46;;;;;;;5.75;3.00;;;;;;;;;;8235554;28;20126;-94
2023/07/25 07:32:49;;;;;;;3.63;2.63;;;;;;;;;;8232118;28;20055;-93
2023/07/25 07:36:52;;;;;;;4.45;2.72;;;;;;;;;;8235735;28;20133;-95
2023/07/25 07:40:56;;;;;;;5.95;2.40;;;;;;;;;;8233900;28;20137;-93
2023/07/25 07:44:59;;;;;;;6.53;2.63;;;;;;;;;;8235649;28;20591;-91
2023/07/25 07:49:02;;;;;;;4.07;2.38;;;;;;;;;;8235505;28;20047;-95
2023/07/25 07:53:05;;;;;;;4.45;2.80;;;;;;;;;;8235106;28;20184;-94
2023/07/25 07:57:10;;;;;;;5.47;2.78;;;;;;;;;;8234896;28;20052;-95
2023/07/25 08:01:16;;;;;;;4.88;2.45;;;;;;;;;;8234563;28;20126;-88
2023/07/25 08:05:19;;;;;;;5.97;2.65;;;;;;;;;;8234919;28;20055;-94
2023/07/25 08:09:22;;;;;;;5.80;2.85;;;;;;;;;;8235099;28;20138;-92
2023/07/25 08:13:27;;;;;;;5.40;2.70;;;;;;;;;;8234457;28;20135;-94
2023/07/25 08:17:30;;;;;;;5.93;2.63;;;;;;;;;;8234443;28;20051;-95
2023/07/25 08:21:32;;;;;;;6.43;3.03;;;;;;;;;;8234362;28;20246;-94
2023/07/25 08:25:35;;;;;;;5.70;2.85;;;;;;;;;;8234373;28;20055;-87
2023/07/25 08:29:45;;;;;;;4.72;2.42;;;;;;;;;;8231051;28;20039;-89
2023/07/25 08:33:48;;;;;;;4.63;2.67;;;;;;;;;;8228148;28;20050;-93
2023/07/25 08:37:51;;;;;;;6.97;2.70;;;;;;;;;;8226464;28;20081;-86
2023/07/25 08:41:55;;;;;;;4.60;2.45;;;;;;;;;;8232086;28;20066;-87
2023/07/25 08:46:03;;;;;;;4.90;2.63;;;;;;;;;;8231616;28;20126;-89
2023/07/25 08:50:14;;;;;;;5.93;2.40;;;;;;;;;;8233490;28;20074;-89
2023/07/25 08:54:26;;;;;;;3.85;2.17;;;;;;;;;;8231875;28;20104;-89
2023/07/25 08:58:29;;;;;;;5.25;2.50;;;;;;;;;;8222087;28;20078;-93
2023/07/25 09:02:34;;;;;;;4.82;2.13;;;;;;;;;;8232069;28;20039;-88
2023/07/25 09:06:37;;;;;;;3.55;2.25;;;;;;;;;;8228470;28;20050;-91
2023/07/25 09:10:41;;;;;;;6.05;2.38;;;;;;;;;;8232996;28;20057;-90
2023/07/25 09:14:44;;;;;;;5.40;2.72;;;;;;;;;;8228992;28;20463;-87
2023/07/25 09:18:49;;;;;;;3.95;2.42;;;;;;;;;;8231450;28;20050;-92
2023/07/25 09:22:52;;;;;;;3.30;2.20;;;;;;;;;;8233518;28;20054;-95
2023/07/25 09:26:55;;;;;;;4.05;2.30;;;;;;;;;;8230370;28;20463;-95
2023/07/25 09:30:57;;;;;;;4.35;2.35;;;;;;;;;;8229701;28;20129;-91
2023/07/25 09:35:06;;;;;;;4.82;2.30;;;;;;;;;;8224976;28;20091;-91
2023/07/25 09:39:10;;;;;;;5.60;2.73;;;;;;;;;;8232788;28;20042;-88
2023/07/25 09:43:22;;;;;;;3.90;2.58;;;;;;;;;;8231666;28;20384;-92
2023/07/25 09:47:27;;;;;;;7.05;2.35;;;;;;;;;;8233161;28;20480;-92
2023/07/25 09:51:32;;;;;;;12.18;2.47;;;;;;;;;;8232206;28;20050;-94
2023/07/25 09:55:35;;;;;;;4.88;2.47;;;;;;;;;;8206957;28;20050;-92
2023/07/25 09:59:39;;;;;;;5.47;2.50;;;;;;;;;;8229362;28;20267;-90
2023/07/25 10:03:44;;;;;;;6.13;2.90;;;;;;;;;;8231190;28;20522;-93
2023/07/25 10:07:50;;;;;;;5.47;2.53;;;;;;;;;;8222048;28;20129;-88
2023/07/25 10:11:54;;;;;;;5.00;2.55;;;;;;;;;;8230927;28;20543;-89
2023/07/25 10:15:57;;;;;;;3.92;2.50;;;;;;;;;;8230288;28;20055;-89
2023/07/25 10:20:00;;;;;;;4.43;2.17;;;;;;;;;;8231147;28;20051;-87
2023/07/25 10:24:05;;;;;;;4.53;2.28;;;;;;;;;;8231207;28;20173;-92
2023/07/25 10:28:08;;;;;;;5.10;2.55;;;;;;;;;;8225572;28;20082;-91
2023/07/25 10:32:13;;;;;;;6.05;2.70;;;;;;;;;;8236159;28;20134;-92
2023/07/25 10:36:23;;;;;;;7.65;3.05;;;;;;;;;;8237407;28;20066;-85
2023/07/25 10:40:55;;;;;;;4.88;2.80;;;;;;;;;;8237386;28;20046;-91
2023/07/25 10:44:58;;;;;;;3.97;2.72;;;;;;;;;;8236925;28;20129;-91
2023/07/25 10:49:02;;;;;;;5.35;2.53;;;;;;;;;;8236838;28;20116;-91
2023/07/25 10:53:15;;;;;;;5.47;2.60;;;;;;;;;;8236910;28;20475;-92
2023/07/25 10:57:22;;;;;;;4.20;2.40;;;;;;;;;;8236553;28;20109;-91
2023/07/25 11:01:43;;;;;;;9.63;2.50;;;;;;;;;;8236572;28;20506;-93
2023/07/25 11:05:45;;;;;;;6.60;2.35;;;;;;;;;;8234965;28;20093;-89
2023/07/25 11:09:48;;;;;;;4.60;2.50;;;;;;;;;;8236157;28;20097;-86
2023/07/25 11:13:53;;;;;;;4.00;2.45;;;;;;;;;;8236179;28;20525;-93
2023/07/25 11:17:57;;;;;;;4.85;2.30;;;;;;;;;;8236085;28;20140;-92
2023/07/25 11:22:00;;;;;;;4.10;2.38;;;;;;;;;;8235887;28;20046;-90
2023/07/25 11:26:06;;;;;;;3.50;2.28;;;;;;;;;;8235114;28;20142;-90
2023/07/25 11:30:16;;;;;;;4.75;2.42;;;;;;;;;;8235526;28;20138;-85
2023/07/25 11:34:20;;;;;;;3.53;2.35;;;;;;;;;;8234945;28;20517;-91
2023/07/25 11:38:25;;;;;;;4.38;2.30;;;;;;;;;;8234185;28;20114;-90
2023/07/25 11:42:29;;;;;;;5.07;2.50;;;;;;;;;;8234962;28;20121;-89
2023/07/25 11:46:36;;;;;;;3.85;2.50;;;;;;;;;;8235048;28;20133;-92
2023/07/25 11:50:42;;;;;;;5.63;2.58;;;;;;;;;;8234695;28;20046;-89
2023/07/25 11:54:45;;;;;;;3.38;2.40;;;;;;;;;;8234859;28;20476;-90
2023/07/25 11:58:49;;;;;;;3.35;2.13;;;;;;;;;;8234603;28;20039;-86
2023/07/25 12:02:54;;;;;;;3.45;2.30;;;;;;;;;;8231071;28;20039;-89
2023/07/25 12:06:59;;;;;;;4.20;2.45;;;;;;;;;;8234102;28;20053;-91
2023/07/25 12:11:03;;;;;;;5.50;2.65;;;;;;;;;;8233542;28;20129;-85
2023/07/25 12:15:07;;;;;;;3.83;2.45;;;;;;;;;;8233687;28;20093;-91
2023/07/25 12:19:13;;;;;;;5.30;2.40;;;;;;;;;;8233814;28;20042;-89
2023/07/25 12:23:16;;;;;;;6.28;2.28;;;;;;;;;;8227697;28;20043;-87
2023/07/25 12:27:22;;;;;;;4.55;2.80;;;;;;;;;;8217486;28;20051;-89
2023/07/25 12:31:25;;;;;;;4.13;2.58;;;;;;;;;;8217370;28;20384;-86
2023/07/25 12:35:29;;;;;;;4.65;2.40;;;;;;;;;;8218959;28;20047;-90
2023/07/25 12:39:32;;;;;;;5.07;2.70;;;;;;;;;;8222137;28;20459;-93
2023/07/25 12:43:35;;;;;;;5.07;2.38;;;;;;;;;;8233540;28;20142;-93
2023/07/25 12:47:38;;;;;;;3.50;2.17;;;;;;;;;;8231923;28;20113;-92
2023/07/25 12:51:42;;;;;;;5.05;2.42;;;;;;;;;;8233392;28;20137;-87
2023/07/25 12:55:45;;;;;;;4.40;2.53;;;;;;;;;;8231617;28;20162;-92
2023/07/25 12:59:48;;;;;;;3.72;2.45;;;;;;;;;;8233319;28;20062;-90
2023/07/25 13:03:51;;;;;;;3.78;2.30;;;;;;;;;;8232968;28;20042;-91
2023/07/25 13:07:56;;;;;;;5.28;2.45;;;;;;;;;;8233198;28;20047;-88
2023/07/25 13:11:59;;;;;;;3.95;2.35;;;;;;;;;;8232843;28;20070;-86
2023/07/25 13:16:03;;;;;;;6.07;2.35;;;;;;;;;;8228098;28;20063;-94
2023/07/25 13:20:08;;;;;;;4.70;2.47;;;;;;;;;;8231099;28;20165;-91
2023/07/25 13:24:12;;;;;;;5.15;2.67;;;;;;;;;;8234282;28;20050;-88
2023/07/25 13:28:16;;;;;;;4.07;2.35;;;;;;;;;;8236535;28;20471;-93
2023/07/25 13:32:19;;;;;;;3.92;2.10;;;;;;;;;;8233219;28;20047;-92
2023/07/25 13:36:22;;;;;;;4.50;2.30;;;;;;;;;;8233297;28;20114;-85
2023/07/25 13:40:26;;;;;;;4.97;2.22;;;;;;;;;;8232857;28;20130;-91
2023/07/25 13:44:28;;;;;;;6.38;2.45;;;;;;;;;;8218776;28;20047;-94
2023/07/25 13:48:31;;;;;;;3.67;2.35;;;;;;;;;;8221796;28;20105;-94
2023/07/25 13:52:34;;;;;;;3.55;2.15;;;;;;;;;;8233023;28;20047;-93
2023/07/25 13:56:39;;;;;;;3.45;2.20;;;;;;;;;;8231932;28;20421;-89
2023/07/25 14:00:42;;;;;;;11.13;3.10;;;;;;;;;;8226844;28;20046;-85
2023/07/25 14:04:45;;;;;;;7.40;2.80;;;;;;;;;;8223694;28;20081;-90
2023/07/25 14:08:49;;;;;;;6.80;2.70;;;;;;;;;;8231664;28;20081;-91
2023/07/25 14:12:54;;;;;;;4.25;2.58;;;;;;;;;;8224283;28;20108;-84
2023/07/25 14:17:00;;;;;;;34.30;9.32;;;;;;;;;;8231714;28;20111;-92
2023/07/25 14:21:06;;;;;;;10.50;4.18;;;;;;;;;;8226435;28;20495;-85
2023/07/25 14:25:10;;;;;;;8.10;3.65;;;;;;;;;;8224125;28;20067;-87
2023/07/25 14:29:14;;;;;;;16.00;5.20;;;;;;;;;;8215663;28;20061;-89
2023/07/25 14:33:20;;;;;;;10.88;3.83;;;;;;;;;;8235882;28;20051;-87
2023/07/25 14:37:23;;;;;;;6.93;3.30;;;;;;;;;;8237206;28;20047;-88
2023/07/25 14:41:27;;;;;;;12.40;3.90;;;;;;;;;;8236848;28;20047;-85
2023/07/25 14:45:32;;;;;;;6.97;3.58;;;;;;;;;;8233940;28;20122;-92
2023/07/25 14:49:35;;;;;;;5.78;2.97;;;;;;;;;;8230477;28;20042;-86
2023/07/25 14:53:38;;;;;;;9.80;5.20;;;;;;;;;;8216919;28;20173;-85
2023/07/25 14:57:41;;;;;;;6.18;3.60;;;;;;;;;;8226558;28;20138;-93
2023/07/25 15:01:46;;;;;;;6.32;3.75;;;;;;;;;;8236673;28;20043;-85
2023/07/25 15:05:49;;;;;;;5.65;3.42;;;;;;;;;;8232322;28;20045;-92
2023/07/25 15:09:52;;;;;;;7.40;3.85;;;;;;;;;;8236490;28;20053;-87
2023/07/25 15:13:55;;;;;;;4.95;3.38;;;;;;;;;;8235938;28;20122;-93
2023/07/25 15:18:00;;;;;;;6.22;3.60;;;;;;;;;;8236553;28;20047;-92
2023/07/25 15:22:04;;;;;;;5.25;3.63;;;;;;;;;;8236320;28;20070;-91
2023/07/25 15:26:09;;;;;;;9.55;3.85;;;;;;;;;;8236434;28;20454;-87
2023/07/25 15:30:13;;;;;;;7.75;4.10;;;;;;;;;;8223264;28;20134;-87
2023/07/25 15:34:19;;;;;;;7.28;3.88;;;;;;;;;;8243217;28;20087;-89
2023/07/25 15:38:22;;;;;;;6.90;4.13;;;;;;;;;;8223793;28;20074;-89
2023/07/25 15:42:26;;;;;;;7.88;4.32;;;;;;;;;;8235465;28;20069;-91
2023/07/25 15:46:28;;;;;;;5.78;3.60;;;;;;;;;;8235131;28;20608;-93
2023/07/25 15:50:33;;;;;;;8.43;4.10;;;;;;;;;;8234964;28;20175;-89
2023/07/25 15:54:38;;;;;;;6.38;3.97;;;;;;;;;;8235843;28;20403;-85
2023/07/25 15:58:42;;;;;;;6.38;3.85;;;;;;;;;;8234908;28;20122;-92
2023/07/25 16:02:45;;;;;;;8.23;3.90;;;;;;;;;;8234707;28;20046;-90
2023/07/25 16:06:51;;;;;;;7.70;4.18;;;;;;;;;;8219077;28;20046;-92
2023/07/25 16:10:55;;;;;;;9.60;4.25;;;;;;;;;;8231058;28;20047;-91
2023/07/25 16:14:58;;;;;;;10.13;3.88;;;;;;;;;;8222742;28;20059;-92
2023/07/25 16:19:03;;;;;;;7.70;4.43;;;;;;;;;;8234501;28;20055;-92
2023/07/25 16:23:11;;;;;;;11.07;4.75;;;;;;;;;;8233755;28;20042;-92
2023/07/25 16:27:15;;;;;;;9.32;4.35;;;;;;;;;;8233571;28;20058;-85
2023/07/25 16:31:20;;;;;;;8.50;4.75;;;;;;;;;;8232742;28;20109;-90
2023/07/25 16:35:24;;;;;;;10.43;4.70;;;;;;;;;;8232352;28;20054;-90
2023/07/25 16:39:28;;;;;;;10.82;4.85;;;;;;;;;;8233252;28;20116;-84
2023/07/25 16:43:32;;;;;;;9.55;5.22;;;;;;;;;;8232983;28;20066;-91
2023/07/25 16:47:37;;;;;;;7.28;5.32;;;;;;;;;;8233356;28;20043;-91
2023/07/25 16:51:41;;;;;;;25.90;16.70;;;;;;;;;;8233750;28;20499;-88
2023/07/25 16:55:46;;;;;;;7.75;4.65;;;;;;;;;;8233572;28;20050;-92
2023/07/25 16:59:50;;;;;;;9.10;5.10;;;;;;;;;;8233011;28;20090;-91
2023/07/25 17:03:54;;;;;;;7.65;5.53;;;;;;;;;;8232873;28;20058;-93
2023/07/25 17:07:58;;;;;;;10.32;4.78;;;;;;;;;;8223471;28;20082;-92
2023/07/25 17:12:05;;;;;;;9.90;4.68;;;;;;;;;;8221314;28;20126;-92
2023/07/25 17:16:09;;;;;;;13.95;4.85;;;;;;;;;;8232693;28;20058;-87
2023/07/25 17:20:14;;;;;;;12.05;7.13;;;;;;;;;;8232946;28;20133;-92
2023/07/25 17:24:18;;;;;;;8.98;5.68;;;;;;;;;;8232825;28;20066;-93
2023/07/25 17:28:24;;;;;;;51.88;22.33;;;;;;;;;;8239973;28;20101;-89
2023/07/25 17:32:28;;;;;;;11.73;7.20;;;;;;;;;;8229623;28;20550;-90
2023/07/25 17:36:31;;;;;;;10.63;7.20;;;;;;;;;;8229922;28;20051;-86
2023/07/25 17:40:37;;;;;;;9.57;6.82;;;;;;;;;;8237274;28;20550;-91
2023/07/25 17:44:43;;;;;;;9.85;6.57;;;;;;;;;;8234195;28;20050;-89
2023/07/25 17:48:46;;;;;;;21.48;10.30;;;;;;;;;;8239583;28;20049;-93
2023/07/25 17:52:49;;;;;;;20.00;9.70;;;;;;;;;;8238842;28;20376;-91
2023/07/25 17:56:53;;;;;;;18.08;9.57;;;;;;;;;;8235969;28;20400;-93
2023/07/25 18:00:59;;;;;;;10.30;6.35;;;;;;;;;;8237574;28;20042;-90
2023/07/25 18:05:03;;;;;;;12.27;7.55;;;;;;;;;;8237854;28;20055;-92
2023/07/25 18:09:07;;;;;;;13.75;8.32;;;;;;;;;;8239395;28;20074;-90
2023/07/25 18:13:12;;;;;;;14.88;8.55;;;;;;;;;;8237567;28;20054;-91
2023/07/25 18:17:19;;;;;;;19.55;8.88;;;;;;;;;;8235032;28;20051;-90
2023/07/25 18:21:23;;;;;;;17.83;9.32;;;;;;;;;;8237974;28;20050;-92
2023/07/25 18:25:26;;;;;;;28.13;17.27;;;;;;;;;;8237436;28;20053;-91
2023/07/25 18:29:31;;;;;;;27.58;15.40;;;;;;;;;;8237123;28;20050;-91
2023/07/25 18:33:38;;;;;;;24.73;14.32;;;;;;;;;;8234504;28;20129;-89
2023/07/25 18:37:44;;;;;;;16.67;9.00;;;;;;;;;;8237709;28;20058;-92
2023/07/25 18:41:49;;;;;;;14.00;8.05;;;;;;;;;;8238065;28;20042;-90
2023/07/25 18:45:57;;;;;;;12.27;8.15;;;;;;;;;;8223170;28;20043;-91
2023/07/25 18:50:08;;;;;;;15.73;9.20;;;;;;;;;;8233316;28;20487;-94
2023/07/25 18:54:12;;;;;;;15.02;9.55;;;;;;;;;;8235881;28;20045;-87
2023/07/25 18:58:28;;;;;;;17.77;10.23;;;;;;;;;;8231059;28;20051;-92
2023/07/25 19:02:35;;;;;;;16.42;8.98;;;;;;;;;;8237042;28;20125;-87
2023/07/25 19:06:45;;;;;;;12.07;8.15;;;;;;;;;;8235907;28;20058;-86
2023/07/25 19:10:55;;;;;;;11.55;8.10;;;;;;;;;;8234934;28;20051;-90
2023/07/25 19:15:01;;;;;;;15.70;9.43;;;;;;;;;;8236272;28;20522;-89
2023/07/25 19:19:07;;;;;;;14.63;9.18;;;;;;;;;;8237064;28;20050;-87
2023/07/25 19:23:33;;;;;;;13.32;8.88;;;;;;;;;;8234028;28;20149;-94
2023/07/25 19:27:55;;;;;;;12.80;8.43;;;;;;;;;;8234504;28;20511;-87
2023/07/25 19:32:10;;;;;;;14.02;9.30;;;;;;;;;;8219385;28;20065;-86
2023/07/25 19:36:16;;;;;;;11.48;7.78;;;;;;;;;;8234303;28;20054;-85
2023/07/25 19:40:31;;;;;;;13.00;8.50;;;;;;;;;;8233083;28;20058;-85
2023/07/25 19:44:37;;;;;;;14.38;8.85;;;;;;;;;;8233125;28;20054;-93
2023/07/25 19:48:42;;;;;;;10.90;8.02;;;;;;;;;;8229555;28;20074;-92
2023/07/25 19:52:45;;;;;;;11.63;8.38;;;;;;;;;;8221931;28;20113;-93
2023/07/25 19:56:51;;;;;;;17.58;8.80;;;;;;;;;;8222954;28;20078;-93
2023/07/25 20:01:01;;;;;;;11.57;8.50;;;;;;;;;;8219797;28;20062;-86
2023/07/25 20:05:07;;;;;;;13.30;8.80;;;;;;;;;;8235158;28;20043;-86
2023/07/25 20:09:11;;;;;;;14.88;8.57;;;;;;;;;;8235075;28;20047;-94
2023/07/25 20:13:17;;;;;;;15.88;8.25;;;;;;;;;;8235303;28;20461;-93
2023/07/25 20:17:21;;;;;;;20.60;11.48;;;;;;;;;;8234909;28;20091;-93
2023/07/25 20:21:24;;;;;;;16.98;9.57;;;;;;;;;;8235207;28;20081;-86
2023/07/25 20:25:28;;;;;;;16.45;10.65;;;;;;;;;;8225585;28;20078;-94
2023/07/25 20:29:33;;;;;;;16.75;10.40;;;;;;;;;;8231087;28;20145;-94
2023/07/25 20:33:37;;;;;;;20.83;11.73;;;;;;;;;;8234689;28;20108;-85
2023/07/25 20:37:44;;;;;;;19.80;11.52;;;;;;;;;;8234077;28;20928;-92
2023/07/25 20:41:51;;;;;;;22.98;12.50;;;;;;;;;;8234372;28;20046;-91
2023/07/25 20:46:05;;;;;;;23.73;12.50;;;;;;;;;;8221871;28;20042;-91
2023/07/25 20:50:11;;;;;;;19.05;12.65;;;;;;;;;;8233838;28;20093;-92
2023/07/25 20:54:17;;;;;;;24.45;12.75;;;;;;;;;;8233849;28;20043;-87
2023/07/25 20:58:25;;;;;;;25.25;13.50;;;;;;;;;;8233766;28;20564;-92
2023/07/25 21:02:30;;;;;;;20.83;13.05;;;;;;;;;;8223065;28;20078;-91
2023/07/25 21:06:33;;;;;;;25.58;13.57;;;;;;;;;;8231474;28;20061;-92
2023/07/25 21:10:36;;;;;;;25.60;13.80;;;;;;;;;;8233050;28;20403;-94
2023/07/25 21:14:39;;;;;;;24.75;14.38;;;;;;;;;;8237219;28;20517;-92
2023/07/25 21:18:44;;;;;;;28.73;14.10;;;;;;;;;;8242028;28;20042;-92
2023/07/25 21:22:47;;;;;;;22.73;12.80;;;;;;;;;;8232622;28;20050;-92
2023/07/25 21:26:50;;;;;;;28.45;15.35;;;;;;;;;;8233530;28;20485;-88
2023/07/25 21:30:53;;;;;;;47.85;16.02;;;;;;;;;;8232754;28;20043;-89
2023/07/25 21:34:58;;;;;;;42.50;13.98;;;;;;;;;;8231960;28;20078;-91
2023/07/25 21:39:03;;;;;;;40.35;16.13;;;;;;;;;;8232581;28;20125;-90
2023/07/25 21:43:06;;;;;;;47.80;16.10;;;;;;;;;;8232735;28;20158;-85
2023/07/25 21:47:09;;;;;;;82.25;16.88;;;;;;;;;;8232381;28;20039;-91
2023/07/25 21:51:14;;;;;;;74.93;15.77;;;;;;;;;;8232610;28;20085;-86
2023/07/25 21:55:17;;;;;;;74.63;16.73;;;;;;;;;;8232454;28;20126;-92
2023/07/25 21:59:20;;;;;;;88.53;17.58;;;;;;;;;;8232617;28;20413;-92
2023/07/25 22:03:23;;;;;;;51.75;16.88;;;;;;;;;;8232146;28;20043;-84
2023/07/25 22:07:27;;;;;;;84.18;16.25;;;;;;;;;;8232652;28;20046;-91
2023/07/25 22:11:30;;;;;;;163.35;18.55;;;;;;;;;;8232158;28;20046;-88
2023/07/25 22:15:33;;;;;;;64.20;16.38;;;;;;;;;;8232161;28;20087;-92
2023/07/25 22:19:36;;;;;;;25.05;11.13;;;;;;;;;;8232601;28;20182;-87
2023/07/25 22:23:40;;;;;;;46.67;12.07;;;;;;;;;;8238294;28;20093;-86
2023/07/25 22:27:43;;;;;;;44.17;12.63;;;;;;;;;;8238445;28;20046;-92
2023/07/25 22:31:46;;;;;;;119.38;15.43;;;;;;;;;;8238192;28;20418;-89
2023/07/25 22:35:49;;;;;;;94.75;15.30;;;;;;;;;;8224644;28;20043;-92
2023/07/25 22:39:54;;;;;;;55.15;14.40;;;;;;;;;;8237555;28;20078;-90
2023/07/25 22:43:57;;;;;;;47.55;12.60;;;;;;;;;;8237183;28;20063;-92
2023/07/25 22:48:00;;;;;;;80.03;11.05;;;;;;;;;;8237350;28;20053;-91
2023/07/25 22:52:03;;;;;;;46.40;10.50;;;;;;;;;;8237077;28;20043;-92
2023/07/25 22:56:08;;;;;;;41.53;10.05;;;;;;;;;;8237181;28;20042;-90
2023/07/25 23:00:12;;;;;;;43.80;10.02;;;;;;;;;;8236769;28;20380;-90
2023/07/25 23:04:14;;;;;;;73.60;12.57;;;;;;;;;;8237442;28;20046;-92
2023/07/25 23:08:17;;;;;;;62.03;12.43;;;;;;;;;;8236961;28;20473;-89
2023/07/25 23:12:22;;;;;;;102.75;13.60;;;;;;;;;;8236779;28;20054;-91
2023/07/25 23:16:25;;;;;;;55.80;11.38;;;;;;;;;;8236492;28;20492;-87
2023/07/25 23:20:28;;;;;;;46.03;9.05;;;;;;;;;;8236359;28;20058;-87
2023/07/25 23:24:31;;;;;;;52.53;8.95;;;;;;;;;;8236244;28;20054;-89
2023/07/25 23:28:35;;;;;;;46.13;10.80;;;;;;;;;;8231539;28;20035;-86
2023/07/25 23:32:38;;;;;;;50.20;10.30;;;;;;;;;;8234538;28;20399;-84
2023/07/25 23:36:41;;;;;;;44.28;11.98;;;;;;;;;;8235866;28;20046;-92
2023/07/25 23:40:44;;;;;;;37.17;9.48;;;;;;;;;;8236168;28;20045;-92
2023/07/25 23:44:48;;;;;;;47.17;10.90;;;;;;;;;;8236189;28;20499;-84
2023/07/25 23:48:51;;;;;;;50.67;11.18;;;;;;;;;;8235523;28;20050;-92
2023/07/25 23:52:54;;;;;;;38.25;12.38;;;;;;;;;;8235754;28;20531;-91
2023/07/25 23:56:57;;;;;;;28.05;11.43;;;;;;;;;;8235393;28;20054;-91
